Time;durP1;ratioP1;P1;durP2;ratioP2;P2;SDS_P1;SDS_P2;PMS_P1;PMS_P2;Temp;Humidity;BMP_temperature;BMP_pressure;BME280_temperature;BME280_humidity;BME280_pressure;Samples;Min_cycle;Max_cycle;Signal;HPM_P1;HPM_P2
2022/09/02 00:03:34;;;;;;;3.10;1.38;;;;;;;13.80;73.24;99870.94;8432397;28;20048;-75
2022/09/02 00:07:35;;;;;;;4.10;1.65;;;;;;;13.73;73.15;99870.59;8431222;28;20044;-75
2022/09/02 00:11:37;;;;;;;5.80;1.30;;;;;;;13.70;73.37;99870.38;8432290;28;20040;-75
2022/09/02 00:15:38;;;;;;;6.82;1.75;;;;;;;13.64;73.54;99867.00;8420644;28;20044;-75
2022/09/02 00:19:39;;;;;;;4.05;1.75;;;;;;;13.59;73.78;99869.84;8415995;28;20048;-74
2022/09/02 00:23:42;;;;;;;5.38;1.70;;;;;;;13.55;73.84;99871.59;8409051;28;20568;-75
2022/09/02 00:27:43;;;;;;;5.03;1.58;;;;;;;13.50;74.13;99871.72;8401863;28;20104;-75
2022/09/02 00:31:45;;;;;;;4.78;1.58;;;;;;;13.45;74.32;99879.97;8415825;28;20135;-75
2022/09/02 00:35:46;;;;;;;4.97;1.80;;;;;;;13.42;74.46;99867.03;8403440;28;20114;-75
2022/09/02 00:39:47;;;;;;;3.17;1.83;;;;;;;13.38;74.70;99869.53;8396774;28;20131;-75
2022/09/02 00:43:50;;;;;;;8.52;1.65;;;;;;;13.36;74.91;99865.56;8426698;28;20052;-75
2022/09/02 00:47:51;;;;;;;4.25;1.85;;;;;;;13.33;75.07;99871.56;8398148;28;20123;-75
2022/09/02 00:52:03;;;;;;;5.80;1.92;;;;;;;13.30;75.21;99866.78;8401143;28;20501;-75
2022/09/02 00:56:05;;;;;;;7.07;1.95;;;;;;;13.26;75.55;99860.38;8428815;28;20460;-75
2022/09/02 01:00:16;;;;;;;7.60;2.20;;;;;;;13.24;75.76;99873.44;8418992;28;20044;-75
2022/09/02 01:04:17;;;;;;;6.28;2.10;;;;;;;13.22;75.86;99871.03;8411262;28;20045;-75
2022/09/02 01:08:23;;;;;;;8.07;2.03;;;;;;;13.20;76.09;99872.44;8405917;28;20098;-75
2022/09/02 01:12:26;;;;;;;5.07;2.05;;;;;;;13.17;76.29;99867.63;8338522;28;20072;-75
2022/09/02 01:16:32;;;;;;;9.02;2.25;;;;;;;13.15;76.51;99875.28;8347202;28;20049;-75
2022/09/02 01:20:33;;;;;;;5.82;2.30;;;;;;;13.11;76.73;99859.59;8342685;28;20048;-75
2022/09/02 01:24:34;;;;;;;5.03;2.33;;;;;;;13.09;76.99;99867.25;8351676;28;20042;-75
2022/09/02 01:28:36;;;;;;;3.85;2.25;;;;;;;13.10;77.19;99863.41;8364014;28;20070;-75
2022/09/02 01:32:37;;;;;;;6.80;2.30;;;;;;;13.12;77.02;99871.25;8350350;28;20499;-75
2022/09/02 01:36:39;;;;;;;5.75;2.10;;;;;;;13.14;77.06;99866.34;8342963;28;20054;-75
2022/09/02 01:40:41;;;;;;;6.53;2.28;;;;;;;13.16;77.07;99860.63;8354246;28;20204;-76
2022/09/02 01:44:48;;;;;;;6.40;2.08;;;;;;;13.18;77.04;99863.81;8422559;28;20547;-76
2022/09/02 01:48:50;;;;;;;7.22;2.25;;;;;;;13.15;77.15;99864.44;8422975;28;20044;-76
2022/09/02 01:52:50;;;;;;;4.97;1.90;;;;;;;13.11;77.24;99859.59;8426562;28;20075;-75
2022/09/02 01:56:52;;;;;;;9.77;1.80;;;;;;;13.08;77.36;99865.63;8424325;28;20106;-75
2022/09/02 02:00:52;;;;;;;3.85;1.85;;;;;;;13.06;77.54;99862.41;8430069;28;20602;-75
2022/09/02 02:04:54;;;;;;;5.13;2.22;;;;;;;13.05;77.50;99849.97;8431446;28;20050;-75
2022/09/02 02:08:54;;;;;;;7.43;2.30;;;;;;;13.03;77.71;99857.59;8432281;28;20036;-75
2022/09/02 02:12:55;;;;;;;4.28;2.38;;;;;;;13.00;77.88;99860.94;8404119;28;20048;-75
2022/09/02 02:16:57;;;;;;;4.85;2.10;;;;;;;12.96;78.01;99851.81;8429274;28;20672;-75
2022/09/02 02:20:58;;;;;;;3.33;2.13;;;;;;;12.93;78.07;99851.63;8395415;28;20044;-74
2022/09/02 02:24:59;;;;;;;4.75;2.17;;;;;;;12.92;78.25;99861.66;8428697;28;20116;-75
2022/09/02 02:29:00;;;;;;;4.10;2.25;;;;;;;12.87;78.44;99859.06;8429386;28;20047;-75
2022/09/02 02:33:03;;;;;;;7.93;2.45;;;;;;;12.83;78.71;99858.06;8416437;28;20051;-75
2022/09/02 02:37:05;;;;;;;7.70;2.60;;;;;;;12.76;79.10;99857.69;8421712;28;20055;-75
2022/09/02 02:41:07;;;;;;;4.30;2.60;;;;;;;12.68;79.57;99844.88;8436839;28;20036;-76
2022/09/02 02:45:11;;;;;;;9.60;2.75;;;;;;;12.63;79.87;99853.09;8424428;28;20038;-76
2022/09/02 02:49:12;;;;;;;4.55;2.70;;;;;;;12.57;80.14;99849.69;8443034;28;20044;-75
2022/09/02 02:53:13;;;;;;;6.25;3.00;;;;;;;12.53;80.39;99848.69;8431550;28;20036;-74
2022/09/02 02:57:14;;;;;;;5.93;2.92;;;;;;;12.49;80.46;99846.88;8428048;28;20189;-75
2022/09/02 03:01:15;;;;;;;5.38;2.97;;;;;;;12.44;80.80;99838.88;8433459;28;20040;-74
2022/09/02 03:05:17;;;;;;;6.63;2.80;;;;;;;12.38;81.04;99837.38;8434099;28;20059;-74
2022/09/02 03:09:19;;;;;;;5.53;2.83;;;;;;;12.32;81.27;99841.31;8424149;28;20036;-75
2022/09/02 03:13:24;;;;;;;8.90;3.20;;;;;;;12.26;81.40;99844.13;8435152;28;20046;-74
2022/09/02 03:17:25;;;;;;;8.02;3.22;;;;;;;12.23;81.50;99850.13;8435016;28;20047;-74
2022/09/02 03:21:26;;;;;;;5.57;3.05;;;;;;;12.18;81.61;99842.09;8431651;28;20047;-74
2022/09/02 03:25:29;;;;;;;4.63;2.78;;;;;;;12.11;81.81;99836.28;8431514;28;20032;-74
2022/09/02 03:29:30;;;;;;;6.00;3.00;;;;;;;12.07;82.01;99835.28;8438265;28;20048;-75
2022/09/02 03:33:31;;;;;;;6.03;2.67;;;;;;;12.03;82.20;99842.41;8448383;28;20047;-75
2022/09/02 03:37:33;;;;;;;8.05;2.80;;;;;;;11.96;82.35;99833.88;8406983;28;20059;-75
2022/09/02 03:41:34;;;;;;;6.80;2.75;;;;;;;11.92;82.59;99843.69;8434073;28;20558;-74
2022/09/02 03:45:35;;;;;;;7.43;2.70;;;;;;;11.88;82.58;99847.31;8449693;28;20040;-75
2022/09/02 03:49:36;;;;;;;5.40;2.63;;;;;;;11.84;82.90;99852.50;8428290;28;20040;-75
2022/09/02 03:53:38;;;;;;;5.40;3.10;;;;;;;11.79;83.07;99849.91;8440321;28;20082;-76
2022/09/02 03:57:39;;;;;;;8.60;2.90;;;;;;;11.74;83.45;99852.66;8416368;28;20052;-75
2022/09/02 04:01:40;;;;;;;4.03;2.53;;;;;;;11.67;83.65;99857.66;8436508;28;20481;-75
2022/09/02 04:05:49;;;;;;;5.55;2.90;;;;;;;11.58;83.98;99854.03;8436264;28;20038;-75
2022/09/02 04:09:54;;;;;;;11.88;2.72;;;;;;;11.49;84.03;99856.59;8432039;28;20040;-75
2022/09/02 04:13:55;;;;;;;9.30;4.03;;;;;;;11.43;84.32;99861.28;8444206;28;20047;-75
2022/09/02 04:17:58;;;;;;;11.57;3.20;;;;;;;11.39;84.37;99857.56;8442551;28;20039;-75
2022/09/02 04:21:59;;;;;;;6.80;2.47;;;;;;;11.34;84.58;99854.97;8446159;28;20068;-74
2022/09/02 04:26:08;;;;;;;12.13;3.08;;;;;;;11.31;84.62;99850.16;8442462;28;20077;-75
2022/09/02 04:30:12;;;;;;;5.38;2.72;;;;;;;11.32;84.75;99851.72;8436866;28;20072;-74
2022/09/02 04:34:12;;;;;;;9.82;3.42;;;;;;;11.30;84.70;99853.94;8387877;28;20036;-74
2022/09/02 04:38:15;;;;;;;7.22;2.90;;;;;;;11.29;84.85;99857.75;8403259;28;20055;-74
2022/09/02 04:42:16;;;;;;;7.40;2.70;;;;;;;11.31;85.11;99855.56;8405337;28;20078;-74
2022/09/02 04:46:18;;;;;;;4.75;2.20;;;;;;;11.32;84.92;99850.94;8403271;28;20094;-75
2022/09/02 04:50:18;;;;;;;6.03;2.08;;;;;;;11.22;85.08;99846.50;8418125;28;20040;-75
2022/09/02 04:54:19;;;;;;;4.20;1.95;;;;;;;11.11;85.44;99850.44;8418216;28;20052;-75
2022/09/02 04:58:20;;;;;;;3.38;2.00;;;;;;;11.06;85.48;99853.22;8399347;28;20099;-74
2022/09/02 05:02:21;;;;;;;5.50;2.28;;;;;;;10.98;85.50;99851.19;8400215;28;20043;-75
2022/09/02 05:06:26;;;;;;;6.93;2.75;;;;;;;10.95;85.88;99857.97;8408125;28;20052;-75
2022/09/02 05:10:27;;;;;;;9.98;2.55;;;;;;;10.98;86.11;99867.41;8430158;28;20434;-75
2022/09/02 05:14:29;;;;;;;3.92;2.33;;;;;;;11.07;85.92;99860.25;8430214;28;20051;-75
2022/09/02 05:18:30;;;;;;;5.65;2.55;;;;;;;11.21;86.03;99863.03;8411968;28;20386;-75
2022/09/02 05:22:31;;;;;;;5.78;2.50;;;;;;;11.37;85.79;99865.16;8419087;28;20064;-75
2022/09/02 05:26:34;;;;;;;7.15;2.70;;;;;;;11.60;85.65;99868.06;8413498;28;20036;-75
2022/09/02 05:30:37;;;;;;;5.05;2.38;;;;;;;11.81;85.09;99864.72;8417592;28;20051;-75
2022/09/02 05:34:38;;;;;;;5.28;2.22;;;;;;;11.99;85.12;99854.13;8434428;28;20140;-75
2022/09/02 05:38:40;;;;;;;9.95;2.78;;;;;;;12.16;85.11;99860.53;8419598;28;20116;-75
2022/09/02 05:42:42;;;;;;;4.45;2.40;;;;;;;12.32;85.03;99868.38;8404402;28;20040;-74
2022/09/02 05:46:43;;;;;;;6.90;2.60;;;;;;;12.39;85.61;99866.06;8431203;28;20052;-75
2022/09/02 05:50:44;;;;;;;8.32;2.60;;;;;;;12.53;85.23;99864.16;8431719;28;20101;-74
2022/09/02 05:54:44;;;;;;;8.48;2.72;;;;;;;12.66;85.08;99863.31;8429883;28;20076;-74
2022/09/02 05:58:46;;;;;;;7.10;2.60;;;;;;;12.70;84.86;99864.31;8383819;28;20056;-75
2022/09/02 06:02:47;;;;;;;3.95;2.20;;;;;;;12.78;84.30;99860.09;8435924;28;20067;-75
2022/09/02 06:06:49;;;;;;;6.18;2.13;;;;;;;12.91;83.95;99870.09;8426159;28;20061;-75
2022/09/02 06:10:50;;;;;;;3.20;2.13;;;;;;;13.01;83.95;99870.66;8431163;28;20170;-75
2022/09/02 06:14:51;;;;;;;4.28;1.90;;;;;;;13.10;83.39;99874.28;8429852;28;20044;-75
2022/09/02 06:18:51;;;;;;;3.65;2.08;;;;;;;13.18;83.13;99869.22;8423250;28;20044;-75
2022/09/02 06:22:52;;;;;;;4.60;2.47;;;;;;;13.26;82.92;99876.66;8440140;28;20046;-75
2022/09/02 06:26:54;;;;;;;7.43;2.38;;;;;;;13.36;82.57;99876.41;8439328;28;20040;-75
2022/09/02 06:30:56;;;;;;;4.68;2.40;;;;;;;13.44;82.18;99875.66;8439602;28;20040;-75
2022/09/02 06:34:57;;;;;;;3.95;2.33;;;;;;;13.48;82.33;99872.00;8397022;28;20051;-74
2022/09/02 06:38:59;;;;;;;8.27;2.53;;;;;;;13.54;81.94;99888.97;8436141;28;20066;-74
2022/09/02 06:43:00;;;;;;;5.22;2.30;;;;;;;13.60;81.67;99876.88;8434044;28;20143;-74
2022/09/02 06:47:01;;;;;;;3.63;2.10;;;;;;;13.66;81.47;99875.66;8434910;28;20051;-74
2022/09/02 06:51:02;;;;;;;3.85;1.90;;;;;;;13.73;80.72;99876.00;8434890;28;20151;-75
2022/09/02 06:55:04;;;;;;;4.18;2.30;;;;;;;13.85;80.58;99878.94;8405880;28;20052;-75
2022/09/02 06:59:06;;;;;;;8.20;2.00;;;;;;;13.92;80.47;99884.75;8434297;28;20044;-75
2022/09/02 07:07:27;;;;;;;7.28;2.13;;;;;;;14.15;79.89;99881.97;8435086;28;20048;-75
2022/09/02 07:11:28;;;;;;;5.13;2.00;;;;;;;14.25;79.71;99889.84;8437734;28;20182;-75
2022/09/02 07:15:29;;;;;;;5.57;2.38;;;;;;;14.35;78.83;99892.28;8436659;28;20040;-74
2022/09/02 07:19:31;;;;;;;4.28;1.65;;;;;;;14.41;78.46;99882.09;8438488;28;20040;-75
2022/09/02 07:23:31;;;;;;;3.35;1.23;;;;;;;14.50;77.51;99888.34;8437279;28;20048;-75
2022/09/02 07:27:34;;;;;;;2.30;1.60;;;;;;;14.59;76.50;99895.41;8437688;28;20415;-74
2022/09/02 07:31:36;;;;;;;3.50;1.67;;;;;;;14.68;76.01;99890.81;8435601;28;20040;-75
2022/09/02 07:35:37;;;;;;;3.20;1.40;;;;;;;14.76;75.67;99892.72;8443722;28;20691;-75
2022/09/02 07:39:38;;;;;;;8.25;1.42;;;;;;;14.85;75.11;99894.69;8439174;28;20047;-75
2022/09/02 07:43:40;;;;;;;2.55;1.30;;;;;;;14.94;75.23;99887.34;8403788;28;20056;-76
2022/09/02 07:47:40;;;;;;;2.45;1.50;;;;;;;15.01;74.93;99883.03;8410683;28;20043;-75
2022/09/02 07:51:47;;;;;;;2.42;1.40;;;;;;;15.09;74.03;99886.88;8419595;28;20131;-75
2022/09/02 07:55:48;;;;;;;2.20;1.30;;;;;;;15.21;73.94;99887.03;8433415;28;20060;-75
2022/09/02 07:59:49;;;;;;;3.33;1.50;;;;;;;15.33;73.92;99884.47;8435757;28;20040;-75
2022/09/02 08:03:51;;;;;;;3.63;1.40;;;;;;;15.47;72.91;99884.28;8425515;28;20079;-75
2022/09/02 08:07:52;;;;;;;4.78;1.20;;;;;;;15.49;72.44;99882.84;8439277;28;20059;-75
2022/09/02 08:11:54;;;;;;;4.85;1.20;;;;;;;15.57;71.97;99879.34;8411814;28;20051;-74
2022/09/02 08:15:55;;;;;;;1.33;1.10;;;;;;;15.71;72.22;99878.34;8431417;28;20048;-75
2022/09/02 08:19:56;;;;;;;2.08;0.95;;;;;;;15.79;71.38;99874.81;8422133;28;20070;-75
2022/09/02 08:23:57;;;;;;;2.38;1.13;;;;;;;15.91;71.63;99883.13;8392587;28;20051;-75
2022/09/02 08:27:58;;;;;;;3.75;1.33;;;;;;;16.03;71.33;99880.50;8436671;28;20465;-76
2022/09/02 08:32:00;;;;;;;2.90;1.13;;;;;;;16.13;71.13;99876.63;8435478;28;20463;-75
2022/09/02 08:36:10;;;;;;;1.60;0.90;;;;;;;16.24;70.25;99878.66;8438083;28;20544;-75
2022/09/02 08:40:17;;;;;;;4.03;1.15;;;;;;;16.32;69.11;99883.28;8394740;28;20143;-75
2022/09/02 08:44:23;;;;;;;1.85;0.88;;;;;;;16.34;68.40;99881.00;8403420;28;20032;-75
2022/09/02 08:48:36;;;;;;;2.75;0.75;;;;;;;16.45;66.74;99882.25;8431008;28;20071;-73
2022/09/02 08:53:00;;;;;;;5.45;1.02;;;;;;;16.52;65.70;99880.94;8429731;28;20559;-74
2022/09/02 08:57:02;;;;;;;1.27;0.85;;;;;;;16.64;65.86;99883.78;8420833;28;20062;-75
2022/09/02 09:01:09;;;;;;;1.90;1.20;;;;;;;16.77;65.70;99882.75;8432049;28;20048;-75
2022/09/02 09:05:24;;;;;;;11.18;2.15;;;;;;;16.88;65.57;99870.31;8434858;28;20527;-75
2022/09/02 09:09:44;;;;;;;4.13;1.15;;;;;;;16.92;65.25;99863.06;8417618;28;20094;-75
2022/09/02 09:14:00;;;;;;;4.93;1.33;;;;;;;16.94;65.08;99869.00;8421304;28;20036;-75
2022/09/02 09:18:04;;;;;;;2.70;1.30;;;;;;;17.11;64.40;99855.22;8431692;28;20579;-76
2022/09/02 09:22:11;;;;;;;2.60;1.10;;;;;;;17.25;64.40;99861.19;8431018;28;20040;-75
2022/09/02 09:26:16;;;;;;;2.88;1.33;;;;;;;17.27;64.23;99864.41;8406627;28;20047;-75
2022/09/02 09:30:17;;;;;;;13.05;1.38;;;;;;;17.30;63.94;99852.78;8433033;28;20055;-74
2022/09/02 09:34:18;;;;;;;3.28;1.27;;;;;;;17.54;63.66;99862.22;8428798;28;20072;-74
2022/09/02 09:38:34;;;;;;;1.60;1.20;;;;;;;17.57;63.64;99856.06;8428341;28;20040;-74
2022/09/02 09:42:36;;;;;;;2.58;1.25;;;;;;;17.27;64.54;99869.84;8388206;28;20048;-76
2022/09/02 09:46:38;;;;;;;2.60;1.25;;;;;;;17.31;64.88;99859.84;8438801;28;20052;-75
2022/09/02 09:50:39;;;;;;;2.05;1.00;;;;;;;17.45;63.97;99859.56;8446228;28;20040;-76
2022/09/02 09:54:40;;;;;;;9.07;1.33;;;;;;;17.44;63.90;99857.19;8452713;28;20051;-75
2022/09/02 09:58:44;;;;;;;2.03;1.20;;;;;;;17.47;63.33;99851.03;8440160;28;20060;-76
2022/09/02 10:02:50;;;;;;;8.10;1.20;;;;;;;17.76;62.90;99842.75;8452607;28;20052;-76
2022/09/02 10:06:51;;;;;;;1.98;1.00;;;;;;;17.50;62.14;99839.47;8418238;28;20132;-75
2022/09/02 10:11:20;;;;;;;2.53;1.25;;;;;;;17.19;62.77;99840.69;8415089;28;20040;-76
2022/09/02 10:15:48;;;;;;;1.38;0.90;;;;;;;17.06;63.67;99836.31;8315729;28;20490;-76
2022/09/02 10:20:07;;;;;;;1.90;0.97;;;;;;;16.99;63.89;99836.03;8216127;29;20107;-76
2022/09/02 10:24:29;;;;;;;2.60;1.02;;;;;;;16.98;64.20;99833.63;8168245;29;20111;-76
2022/09/02 10:28:44;;;;;;;1.73;0.98;;;;;;;17.14;63.75;99827.25;8220760;28;20047;-75
2022/09/02 10:33:30;;;;;;;2.08;1.02;;;;;;;17.60;62.12;99822.69;8196936;28;20059;-74
2022/09/02 10:37:38;;;;;;;1.48;0.90;;;;;;;17.56;61.72;99821.69;8205393;28;20413;-75
2022/09/02 10:41:47;;;;;;;2.67;0.90;;;;;;;17.71;59.84;99823.84;8205457;29;20048;-75
2022/09/02 10:45:50;;;;;;;2.25;0.95;;;;;;;18.14;59.02;99832.28;8201565;28;20062;-75
2022/09/02 10:50:06;;;;;;;2.85;1.10;;;;;;;18.01;59.39;99838.09;8195793;28;20055;-75
2022/09/02 10:54:24;;;;;;;1.05;0.90;;;;;;;17.96;60.63;99828.19;8269875;28;20089;-74
2022/09/02 10:58:37;;;;;;;3.65;0.95;;;;;;;17.93;60.63;99820.66;8400448;28;20063;-75
2022/09/02 11:02:38;;;;;;;1.20;0.90;;;;;;;17.83;59.74;99821.09;8414312;28;20055;-75
2022/09/02 11:06:40;;;;;;;1.38;1.00;;;;;;;17.77;59.83;99817.00;8432586;28;20051;-75
2022/09/02 11:11:13;;;;;;;3.10;1.00;;;;;;;17.77;60.81;99816.19;8419849;28;20090;-75
2022/09/02 11:15:32;;;;;;;1.65;0.90;;;;;;;17.79;60.00;99817.47;8328441;28;20065;-75
2022/09/02 11:19:57;;;;;;;1.23;0.80;;;;;;;17.84;60.32;99811.78;8298878;28;20131;-75
2022/09/02 11:24:21;;;;;;;0.85;0.57;;;;;;;18.46;59.38;99816.09;8327830;28;20041;-74
2022/09/02 11:28:30;;;;;;;1.17;0.77;;;;;;;19.23;57.87;99800.44;8327086;28;20102;-74
2022/09/02 11:32:41;;;;;;;0.82;0.63;;;;;;;19.46;57.50;99793.25;8313788;28;20671;-74
2022/09/02 11:36:43;;;;;;;1.25;0.82;;;;;;;19.10;55.93;99807.09;8297611;28;20081;-74
2022/09/02 11:40:47;;;;;;;3.63;0.88;;;;;;;18.73;56.35;99812.69;8328261;28;20072;-75
2022/09/02 11:45:14;;;;;;;2.65;1.20;;;;;;;18.46;56.67;99805.16;8328263;28;20053;-75
2022/09/02 11:49:34;;;;;;;1.85;0.80;;;;;;;18.28;57.16;99803.84;8327991;28;20414;-75
2022/09/02 11:53:37;;;;;;;1.40;0.80;;;;;;;18.17;57.73;99802.69;8416045;28;20048;-75
2022/09/02 11:57:40;;;;;;;2.17;0.88;;;;;;;18.10;58.25;99798.59;8414828;28;20048;-75
2022/09/02 12:01:51;;;;;;;2.90;0.80;;;;;;;18.43;57.93;99800.41;8415158;28;20055;-75
2022/09/02 12:06:18;;;;;;;1.58;0.70;;;;;;;18.85;55.00;99793.50;8430340;28;20119;-75
2022/09/02 12:10:38;;;;;;;2.78;0.63;;;;;;;18.72;55.65;99786.44;8293474;28;20050;-74
2022/09/02 12:14:42;;;;;;;2.20;0.73;;;;;;;18.54;55.46;99790.63;8309447;28;20127;-74
2022/09/02 12:18:45;;;;;;;1.88;0.73;;;;;;;18.37;55.93;99785.34;8309301;28;20049;-76
2022/09/02 12:22:45;;;;;;;3.17;0.70;;;;;;;18.47;55.80;99779.41;8277898;28;20050;-75
2022/09/02 12:26:47;;;;;;;0.95;0.60;;;;;;;19.10;54.94;99768.75;8290598;28;20050;-75
2022/09/02 12:31:07;;;;;;;1.58;0.77;;;;;;;19.73;50.59;99762.25;8292869;28;20046;-75
2022/09/02 12:35:12;;;;;;;1.33;0.80;;;;;;;19.98;50.39;99762.09;8305249;28;20107;-74
2022/09/02 12:39:34;;;;;;;4.00;0.70;;;;;;;19.57;50.83;99761.44;8292873;28;20062;-74
2022/09/02 12:43:41;;;;;;;0.77;0.70;;;;;;;19.25;52.48;99770.75;8221843;28;20058;-74
2022/09/02 12:47:52;;;;;;;2.55;0.60;;;;;;;18.95;52.71;99767.56;8283576;28;20125;-75
2022/09/02 12:52:01;;;;;;;1.40;0.55;;;;;;;18.72;52.83;99764.56;8276893;28;20495;-75
2022/09/02 12:56:17;;;;;;;1.33;0.70;;;;;;;18.47;53.74;99757.53;8227231;28;20133;-75
2022/09/02 13:00:25;;;;;;;1.85;0.70;;;;;;;18.28;55.04;99754.63;8227333;28;20051;-75
2022/09/02 13:04:41;;;;;;;1.90;0.70;;;;;;;18.54;54.78;99752.31;8226822;28;20070;-75
2022/09/02 13:08:58;;;;;;;2.13;0.90;;;;;;;18.92;53.02;99741.72;8214065;28;20051;-75
2022/09/02 13:13:29;;;;;;;1.30;0.70;;;;;;;19.10;51.18;99733.16;8210916;28;20050;-75
2022/09/02 13:18:00;;;;;;;1.23;0.80;;;;;;;19.26;51.60;99728.53;8227856;28;20047;-75
2022/09/02 13:22:22;;;;;;;1.08;0.73;;;;;;;19.32;53.14;99732.59;8381465;28;20044;-75
2022/09/02 13:26:34;;;;;;;0.95;0.70;;;;;;;19.11;52.02;99732.03;8400942;28;20106;-76
2022/09/02 13:30:38;;;;;;;3.45;0.90;;;;;;;18.89;53.03;99736.13;8391340;28;20089;-76
2022/09/02 13:34:44;;;;;;;2.65;1.10;;;;;;;18.77;53.42;99739.69;8426946;28;20039;-76
2022/09/02 13:38:44;;;;;;;1.20;0.70;;;;;;;19.01;54.54;99727.06;8407611;28;20753;-75
2022/09/02 13:42:57;;;;;;;0.93;0.80;;;;;;;22.33;47.93;99723.09;8428292;28;20044;-75
2022/09/02 13:47:03;;;;;;;2.22;1.20;;;;;;;25.01;41.95;99716.78;8427561;28;20119;-75
2022/09/02 13:51:14;;;;;;;1.77;0.90;;;;;;;25.92;40.24;99704.22;8423587;28;20093;-75
2022/09/02 13:55:16;;;;;;;3.10;0.70;;;;;;;27.42;37.13;99699.72;8409291;28;20036;-75
2022/09/02 13:59:31;;;;;;;3.92;0.73;;;;;;;28.38;34.17;99694.09;8429324;28;20429;-74
2022/09/02 14:03:32;;;;;;;2.70;0.70;;;;;;;28.70;33.82;99700.06;8422020;28;20059;-75
2022/09/02 14:07:40;;;;;;;2.78;1.27;;;;;;;29.61;32.68;99694.41;8435027;28;20052;-76
2022/09/02 14:11:44;;;;;;;3.22;0.70;;;;;;;27.12;34.70;99698.34;8432968;28;20055;-74
2022/09/02 14:15:46;;;;;;;1.48;0.65;;;;;;;26.75;35.04;99698.13;8428179;28;20489;-75
2022/09/02 14:19:47;;;;;;;1.52;0.70;;;;;;;26.98;34.37;99697.59;8419353;28;20055;-74
2022/09/02 14:23:51;;;;;;;1.52;0.80;;;;;;;28.38;31.88;99694.09;8432169;28;20135;-75
2022/09/02 14:27:57;;;;;;;1.98;0.95;;;;;;;29.16;30.64;99698.66;8431452;28;20450;-75
2022/09/02 14:32:13;;;;;;;2.60;0.88;;;;;;;27.69;32.15;99692.38;8415028;28;20040;-75
2022/09/02 14:36:14;;;;;;;2.10;0.80;;;;;;;27.98;32.72;99693.69;8435859;28;20044;-75
2022/09/02 14:40:16;;;;;;;3.88;0.80;;;;;;;26.02;34.68;99697.88;8440565;28;20052;-74
2022/09/02 14:44:33;;;;;;;2.05;0.80;;;;;;;24.27;37.59;99700.66;8433426;28;20044;-75
2022/09/02 14:48:37;;;;;;;1.15;0.70;;;;;;;22.92;39.40;99710.50;8438868;28;20044;-74
2022/09/02 14:52:45;;;;;;;1.85;1.00;;;;;;;22.09;40.88;99707.03;8431124;28;21603;-74
2022/09/02 14:56:52;;;;;;;1.60;0.80;;;;;;;21.59;42.29;99704.63;8436253;28;20059;-75
2022/09/02 15:00:56;;;;;;;3.38;1.20;;;;;;;21.34;42.97;99702.25;8425679;28;20397;-74
2022/09/02 15:04:59;;;;;;;1.65;0.93;;;;;;;21.10;43.88;99694.31;8428889;28;20047;-74
2022/09/02 15:09:00;;;;;;;1.35;0.85;;;;;;;21.02;44.10;99703.59;8416814;28;20044;-75
2022/09/02 15:13:01;;;;;;;2.50;0.98;;;;;;;20.88;44.34;99701.38;8410819;28;20048;-75
2022/09/02 15:17:07;;;;;;;3.42;1.00;;;;;;;20.70;45.31;99702.19;8417915;28;20461;-75
2022/09/02 15:21:08;;;;;;;4.43;0.90;;;;;;;20.46;45.78;99687.56;8431907;28;20409;-75
2022/09/02 15:25:09;;;;;;;3.25;1.35;;;;;;;20.42;45.78;99689.47;8419067;28;20037;-75
2022/09/02 15:29:12;;;;;;;1.55;1.00;;;;;;;20.32;46.01;99692.78;8424858;28;20059;-75
2022/09/02 15:33:13;;;;;;;4.25;0.98;;;;;;;20.21;47.08;99691.72;8422727;28;20586;-75
2022/09/02 15:37:14;;;;;;;2.17;0.90;;;;;;;20.09;48.20;99689.09;8420370;28;20043;-75
2022/09/02 15:41:23;;;;;;;4.15;0.90;;;;;;;19.93;49.30;99680.13;8432021;28;20059;-75
2022/09/02 15:45:25;;;;;;;2.67;1.15;;;;;;;19.78;50.38;99677.03;8425614;28;20043;-75
2022/09/02 15:49:26;;;;;;;1.95;1.05;;;;;;;19.57;50.58;99684.75;8418779;28;20032;-75
2022/09/02 15:53:27;;;;;;;3.72;1.00;;;;;;;19.38;51.25;99676.41;8424562;28;20056;-75
2022/09/02 15:57:29;;;;;;;2.97;0.80;;;;;;;19.30;51.82;99677.38;8390424;28;20143;-74
2022/09/02 16:01:32;;;;;;;2.47;0.90;;;;;;;19.19;52.35;99679.06;8424601;28;20044;-75
2022/09/02 16:05:32;;;;;;;0.93;0.70;;;;;;;19.12;52.24;99681.63;8419565;28;20115;-75
2022/09/02 16:09:33;;;;;;;1.50;0.98;;;;;;;19.07;52.08;99681.88;8420860;28;20048;-75
2022/09/02 16:13:35;;;;;;;2.60;1.10;;;;;;;19.06;51.87;99670.13;8424331;28;20507;-76
2022/09/02 16:17:36;;;;;;;1.27;0.93;;;;;;;19.03;51.66;99681.00;8428091;28;20105;-75
2022/09/02 17:06:41;;;;;;;3.22;1.45;;;;;;;17.90;56.56;99660.16;8963063;23;20056;-84
2022/09/02 17:10:42;;;;;;;6.28;2.75;;;;;;;17.70;58.06;99674.72;8166557;29;20091;-83
2022/09/02 17:14:43;;;;;;;12.43;5.53;;;;;;;17.46;59.38;99669.22;8147701;29;20060;-83
2022/09/02 17:18:44;;;;;;;6.97;3.50;;;;;;;17.23;60.16;99666.94;8155993;29;20090;-83
2022/09/02 17:22:45;;;;;;;3.55;1.80;;;;;;;16.98;61.01;99665.28;8175340;29;20130;-84
2022/09/02 17:26:49;;;;;;;4.15;1.40;;;;;;;16.75;62.11;99672.28;8161923;29;20107;-84
2022/09/02 17:30:50;;;;;;;3.40;1.42;;;;;;;16.54;62.90;99666.03;8167500;29;20139;-83
2022/09/02 17:34:51;;;;;;;2.92;1.15;;;;;;;16.32;63.50;99664.44;8167023;29;20047;-84
2022/09/02 17:38:57;;;;;;;3.72;1.40;;;;;;;16.09;64.78;99666.69;8150059;29;20139;-84
2022/09/02 17:42:58;;;;;;;4.63;1.50;;;;;;;15.93;65.19;99673.84;8166129;29;20056;-84
2022/09/02 17:47:00;;;;;;;3.97;1.30;;;;;;;15.80;65.59;99674.91;8167038;29;20134;-84
2022/09/02 17:51:01;;;;;;;5.20;1.20;;;;;;;15.68;66.08;99669.34;8166860;29;20067;-84
2022/09/02 17:55:03;;;;;;;7.20;1.50;;;;;;;15.59;66.42;99664.75;8167021;29;20086;-84
2022/09/02 17:59:23;;;;;;;4.75;1.80;;;;;;;15.55;66.52;99673.88;8166767;29;20048;-84
2022/09/02 18:03:44;;;;;;;7.43;1.65;;;;;;;15.49;66.93;99670.50;8150024;29;20127;-83
2022/09/02 18:07:59;;;;;;;3.28;1.67;;;;;;;15.44;67.07;99673.41;8180076;29;20052;-83
2022/09/02 18:12:00;;;;;;;4.30;1.88;;;;;;;15.38;67.33;99674.75;8164409;29;20056;-84
2022/09/02 18:16:13;;;;;;;5.85;2.03;;;;;;;15.29;67.55;99676.69;8185013;29;20113;-83
2022/09/02 18:20:18;;;;;;;4.78;1.85;;;;;;;15.26;67.20;99677.34;8174318;29;20044;-83
2022/09/02 18:24:41;;;;;;;4.68;2.10;;;;;;;15.25;66.63;99675.75;8174063;29;20058;-83
2022/09/02 18:29:21;;;;;;;6.30;1.98;;;;;;;15.30;65.81;99683.72;8188854;29;20099;-85
2022/09/02 18:33:43;;;;;;;3.55;1.90;;;;;;;15.32;64.94;99683.41;8183220;29;20790;-82
2022/09/02 18:37:54;;;;;;;4.30;1.80;;;;;;;15.34;64.51;99684.66;8172010;29;20068;-84
2022/09/02 18:42:31;;;;;;;5.95;2.00;;;;;;;15.39;63.83;99681.78;8178373;29;20044;-86
2022/09/02 18:46:50;;;;;;;8.02;2.45;;;;;;;15.43;63.65;99682.72;8163115;29;20047;-83
2022/09/02 18:50:55;;;;;;;;;;;;;;;15.44;63.26;99678.09;8168799;29;20044;-86
2022/09/02 18:55:14;;;;;;;6.20;2.28;;;;;;;15.44;62.72;99681.59;8186433;29;19923;-84
2022/09/02 18:59:21;;;;;;;3.65;1.85;;;;;;;15.46;62.36;99676.63;8173766;29;20067;-84
2022/09/02 19:03:22;;;;;;;5.68;1.92;;;;;;;15.44;62.10;99684.31;8098999;29;20048;-86
2022/09/02 19:11:43;;;;;;;5.82;2.13;;;;;;;15.38;62.01;99691.09;8101191;29;20509;-86
2022/09/02 19:15:44;;;;;;;9.02;2.00;;;;;;;15.33;62.12;99685.81;8109166;29;20047;-85
2022/09/02 19:19:45;;;;;;;4.75;1.80;;;;;;;15.25;62.46;99692.06;8110974;29;20082;-83
2022/09/02 19:23:47;;;;;;;8.00;1.60;;;;;;;15.19;62.44;99696.09;8101916;29;20506;-84
2022/09/02 19:27:50;;;;;;;4.05;1.73;;;;;;;15.11;62.73;99696.94;8084267;29;20060;-85
2022/09/02 19:31:54;;;;;;;4.57;1.77;;;;;;;15.02;62.76;99701.56;8091241;29;20053;-86
2022/09/02 19:35:58;;;;;;;6.10;2.00;;;;;;;14.93;62.78;99703.50;8164941;29;20123;-87
2022/09/02 19:40:06;;;;;;;2.88;1.90;;;;;;;14.89;62.96;99705.28;8172059;29;20055;-87
2022/09/02 19:44:11;;;;;;;2.77;1.87;;;;;;;14.85;62.79;99704.34;8153925;29;20425;-87
2022/09/02 19:48:13;;;;;;;5.97;1.80;;;;;;;14.77;62.97;99698.56;8173605;29;20355;-87
2022/09/02 19:52:15;;;;;;;6.03;1.92;;;;;;;14.74;63.11;99701.94;8168891;29;20056;-85
2022/09/02 19:56:19;;;;;;;5.22;1.60;;;;;;;14.69;62.99;99702.13;8176158;29;20051;-86
2022/09/02 20:00:21;;;;;;;10.43;1.60;;;;;;;14.62;63.16;99704.50;8173314;29;20143;-86
2022/09/02 20:04:23;;;;;;;7.28;1.88;;;;;;;14.55;63.11;99701.47;8177461;29;20051;-85
2022/09/02 20:08:29;;;;;;;6.35;2.03;;;;;;;14.53;63.39;99706.44;8152874;29;20606;-83
2022/09/02 20:12:33;;;;;;;6.88;2.13;;;;;;;14.46;63.59;99705.31;8170799;29;20048;-83